Time;durP1;ratioP1;P1;durP2;ratioP2;P2;SDS_P1;SDS_P2;PMS_P1;PMS_P2;Temp;Humidity;BMP_temperature;BMP_pressure;BME280_temperature;BME280_humidity;BME280_pressure;Samples;Min_cycle;Max_cycle;Signal;HPM_P1;HPM_P2
2021/04/09 00:02:22;;;;;;;16.80;7.07;;;;;;;-0.04;79.06;100469.58;232765;1170;114583;-63
2021/04/09 00:07:28;;;;;;;14.77;8.63;;;;;;;-0.11;79.36;100479.00;232990;1174;115610;-64
2021/04/09 00:12:33;;;;;;;14.10;7.17;;;;;;;-0.17;79.20;100478.75;232952;1174;116261;-65
2021/04/09 00:17:38;;;;;;;12.33;7.35;;;;;;;-0.25;79.61;100482.09;233215;1174;116138;-63
2021/04/09 00:22:45;;;;;;;18.13;7.90;;;;;;;-0.24;79.73;100483.75;233745;1167;116136;-65
2021/04/09 00:27:49;;;;;;;15.50;7.55;;;;;;;-0.25;79.67;100486.52;232394;1174;114836;-65
2021/04/09 00:32:51;;;;;;;19.48;9.48;;;;;;;-0.20;79.69;100485.11;233275;1171;115642;-63
2021/04/09 00:37:55;;;;;;;14.70;7.10;;;;;;;-0.20;79.47;100484.28;232695;1174;115865;-65
2021/04/09 00:42:58;;;;;;;14.30;7.03;;;;;;;-0.16;79.26;100485.64;234083;1174;116552;-65
2021/04/09 00:48:02;;;;;;;10.60;6.60;;;;;;;-0.20;80.08;100479.05;232701;1174;138231;-64
2021/04/09 00:53:13;;;;;;;19.73;7.93;;;;;;;-0.13;79.63;100485.35;233657;1174;115378;-64
2021/04/09 00:58:17;;;;;;;17.20;6.43;;;;;;;-0.10;79.09;100479.81;234180;1174;114805;-65
2021/04/09 01:03:20;;;;;;;16.80;7.20;;;;;;;-0.06;78.87;100470.69;234376;1174;115515;-66
2021/04/09 01:08:23;;;;;;;14.20;7.90;;;;;;;-0.05;78.50;100483.66;234175;1174;114800;-65
2021/04/09 01:13:26;;;;;;;17.00;9.50;;;;;;;-0.01;78.31;100476.31;234969;1174;115764;-66
2021/04/09 01:18:41;;;;;;;18.03;8.20;;;;;;;-0.02;78.04;100472.05;234920;1174;115140;-65
2021/04/09 01:24:08;;;;;;;13.53;6.93;;;;;;;0.02;78.46;100480.41;234000;1174;115221;-67
2021/04/09 01:29:30;;;;;;;14.33;7.50;;;;;;;-0.03;77.91;100484.33;234743;1174;116214;-65
2021/04/09 01:34:38;;;;;;;13.65;8.40;;;;;;;-0.02;78.02;100482.53;234356;1174;116147;-63
2021/04/09 01:39:47;;;;;;;11.00;8.55;;;;;;;-0.08;78.01;100477.88;233712;1175;117813;-65
2021/04/09 01:44:53;;;;;;;17.85;8.90;;;;;;;-0.06;78.35;100483.80;232968;1174;114978;-65
2021/04/09 01:50:01;;;;;;;17.78;8.08;;;;;;;-0.12;77.99;100466.86;232851;1174;118772;-64
2021/04/09 01:55:07;;;;;;;22.20;9.60;;;;;;;-0.18;78.23;100469.24;233212;1174;115637;-65
2021/04/09 02:00:17;;;;;;;16.40;8.77;;;;;;;-0.25;78.94;100465.55;232525;1174;115266;-64
2021/04/09 02:05:25;;;;;;;17.80;8.73;;;;;;;-0.28;78.73;100460.61;233693;1170;115816;-65
2021/04/09 02:10:29;;;;;;;25.65;8.88;;;;;;;-0.32;78.80;100470.58;232974;1174;115813;-64
2021/04/09 02:15:33;;;;;;;19.40;9.43;;;;;;;-0.32;78.67;100465.34;232499;1174;116150;-64
2021/04/09 02:20:37;;;;;;;18.03;8.70;;;;;;;-0.30;78.84;100467.79;232669;1174;115591;-63
2021/04/09 02:25:41;;;;;;;18.43;9.55;;;;;;;-0.32;78.43;100461.90;233980;1174;115479;-64
2021/04/09 02:31:02;;;;;;;22.13;8.70;;;;;;;-0.39;79.18;100464.27;232748;1174;115856;-63
2021/04/09 02:36:15;;;;;;;20.55;9.70;;;;;;;-0.38;79.02;100456.27;232542;1171;118525;-63
2021/04/09 02:41:21;;;;;;;19.60;7.90;;;;;;;-0.52;79.06;100450.69;232822;1174;117450;-64
2021/04/09 02:46:37;;;;;;;16.63;10.57;;;;;;;-0.55;79.61;100446.56;233204;1174;115552;-64
2021/04/09 02:51:43;;;;;;;;;;;;;;;-0.53;79.25;100449.86;232690;1174;115684;-66
2021/04/09 02:56:48;;;;;;;19.25;9.70;;;;;;;-0.50;79.68;100446.13;235104;1174;103038;-64
2021/04/09 03:01:53;;;;;;;15.53;9.80;;;;;;;-0.52;79.64;100442.83;234133;1176;115264;-64
2021/04/09 03:06:57;;;;;;;27.23;12.23;;;;;;;-0.52;79.47;100434.97;233673;1174;115082;-65
2021/04/09 03:12:10;;;;;;;19.23;10.65;;;;;;;-0.44;79.17;100448.16;234488;1174;115487;-65
2021/04/09 03:17:34;;;;;;;20.20;9.75;;;;;;;-0.39;78.66;100441.52;234983;1174;115624;-64
2021/04/09 03:22:38;;;;;;;21.43;9.83;;;;;;;-0.53;78.71;100442.00;235067;1174;115061;-64
2021/04/09 03:27:41;;;;;;;21.75;12.15;;;;;;;-0.48;78.61;100442.39;235046;1174;115335;-63
2021/04/09 03:32:46;;;;;;;22.70;11.38;;;;;;;-0.48;78.76;100437.16;232872;1174;115896;-62
2021/04/09 03:37:50;;;;;;;20.17;11.53;;;;;;;-0.52;78.67;100433.17;234570;1174;115589;-65
2021/04/09 03:42:54;;;;;;;17.88;10.78;;;;;;;-0.51;79.00;100436.63;233972;1174;115361;-64
2021/04/09 03:47:59;;;;;;;14.13;9.03;;;;;;;-0.59;79.32;100433.90;232925;1173;115183;-64
2021/04/09 03:53:04;;;;;;;22.33;10.53;;;;;;;-0.57;78.83;100424.93;234365;1174;116207;-64
2021/04/09 03:58:09;;;;;;;21.30;10.70;;;;;;;-0.62;78.98;100421.13;233024;1174;115303;-62
2021/04/09 04:03:12;;;;;;;14.23;8.63;;;;;;;-0.65;79.66;100417.00;232583;1174;115797;-63
2021/04/09 04:08:16;;;;;;;24.45;10.40;;;;;;;-0.59;78.86;100415.57;233408;1173;114977;-64
2021/04/09 04:13:22;;;;;;;18.95;9.00;;;;;;;-0.61;78.54;100415.71;233715;1174;117177;-62
2021/04/09 04:18:27;;;;;;;19.45;11.05;;;;;;;-0.62;78.80;100414.09;232647;1173;115474;-64
2021/04/09 04:23:33;;;;;;;16.10;9.15;;;;;;;-0.55;78.96;100409.90;232963;1174;115724;-62
2021/04/09 04:28:36;;;;;;;25.88;11.40;;;;;;;-0.44;78.37;100409.70;232934;1174;115782;-63
2021/04/09 04:33:39;;;;;;;18.80;10.07;;;;;;;-0.35;77.99;100408.83;233088;1174;115659;-63
2021/04/09 04:38:42;;;;;;;16.17;9.53;;;;;;;-0.21;77.67;100409.27;233141;1174;116434;-66
2021/04/09 04:43:46;;;;;;;19.93;10.48;;;;;;;-0.02;76.92;100415.21;232980;1174;117561;-66
2021/04/09 04:48:50;;;;;;;15.50;9.40;;;;;;;0.10;76.44;100407.92;232947;1174;117185;-64
2021/04/09 04:53:54;;;;;;;19.98;11.88;;;;;;;0.21;75.93;100399.84;232747;1174;118677;-64
2021/04/09 04:58:58;;;;;;;26.43;10.23;;;;;;;0.28;75.28;100394.81;233033;1174;116124;-63
2021/04/09 05:04:01;;;;;;;21.73;10.77;;;;;;;0.37;74.62;100408.79;233133;1174;116052;-65
2021/04/09 05:09:06;;;;;;;23.20;10.75;;;;;;;0.45;74.43;100398.36;232523;1174;115792;-65
2021/04/09 05:14:14;;;;;;;17.95;10.90;;;;;;;0.55;74.39;100412.22;233750;1174;116110;-65
2021/04/09 05:19:18;;;;;;;;;;;;;;;0.64;73.62;100390.28;234168;1174;115562;-65
2021/04/09 05:24:22;;;;;;;16.10;9.80;;;;;;;0.93;73.42;100389.95;234870;1174;102963;-65
2021/04/09 05:29:25;;;;;;;16.70;9.88;;;;;;;1.09;72.25;100386.59;233004;1174;116137;-65
2021/04/09 05:34:28;;;;;;;17.63;9.47;;;;;;;1.17;71.97;100387.46;235198;1174;117039;-66
2021/04/09 05:39:31;;;;;;;12.33;8.60;;;;;;;1.35;70.97;100384.72;235045;1174;116798;-65
2021/04/09 05:44:36;;;;;;;21.90;10.43;;;;;;;1.58;70.88;100377.88;235208;1174;115799;-66
2021/04/09 05:49:39;;;;;;;15.15;9.95;;;;;;;1.78;70.13;100385.49;235179;1174;115623;-66
2021/04/09 05:54:42;;;;;;;14.65;8.30;;;;;;;1.93;68.93;100383.85;234298;1176;116735;-67
2021/04/09 05:59:47;;;;;;;13.03;7.48;;;;;;;2.02;68.44;100382.88;234915;1176;116307;-67
2021/04/09 06:04:49;;;;;;;12.60;7.10;;;;;;;2.13;68.53;100374.67;233609;1174;115628;-68
2021/04/09 06:09:53;;;;;;;10.65;7.50;;;;;;;2.29;68.84;100385.17;233096;1173;114964;-66
2021/04/09 06:14:56;;;;;;;13.40;7.68;;;;;;;2.48;68.38;100373.47;233145;1174;114645;-66
2021/04/09 06:19:59;;;;;;;14.50;7.28;;;;;;;2.58;67.00;100362.77;233040;1175;116777;-66
2021/04/09 06:25:06;;;;;;;13.28;7.48;;;;;;;2.67;66.52;100361.77;232548;1174;115825;-63
2021/04/09 06:30:09;;;;;;;10.57;6.77;;;;;;;2.69;66.11;100355.36;232956;1174;114896;-64
2021/04/09 06:35:13;;;;;;;18.13;9.40;;;;;;;2.90;65.70;100346.06;233117;1174;114747;-66
2021/04/09 06:40:16;;;;;;;19.70;8.38;;;;;;;3.11;66.58;100348.11;232539;1174;115820;-63
2021/04/09 06:45:20;;;;;;;12.40;8.30;;;;;;;3.32;65.24;100356.27;232999;1171;114786;-65
2021/04/09 06:50:25;;;;;;;16.45;8.05;;;;;;;3.67;63.13;100342.52;232870;1167;115772;-66
2021/04/09 06:55:29;;;;;;;13.13;9.33;;;;;;;4.06;62.13;100345.04;232660;1175;115890;-65
2021/04/09 07:00:32;;;;;;;9.30;6.20;;;;;;;4.12;59.18;100338.23;232654;1174;115460;-65
2021/04/09 07:05:39;;;;;;;15.27;9.00;;;;;;;4.31;59.84;100327.16;233462;1174;115310;-63
2021/04/09 07:10:42;;;;;;;8.45;5.33;;;;;;;4.80;61.61;100324.03;233905;1174;115317;-65
2021/04/09 07:15:47;;;;;;;11.33;6.93;;;;;;;5.40;57.99;100323.75;233447;1174;114726;-72
2021/04/09 07:20:50;;;;;;;6.78;5.20;;;;;;;6.91;52.07;100320.70;233323;1174;115675;-67
2021/04/09 07:25:55;;;;;;;10.75;6.85;;;;;;;8.15;48.72;100313.23;234380;1176;115300;-67
2021/04/09 07:30:59;;;;;;;4.58;3.03;;;;;;;8.55;47.24;100303.42;232487;1174;116216;-65
2021/04/09 07:36:10;;;;;;;6.20;3.53;;;;;;;8.67;45.76;100301.73;234099;1175;116124;-66
2021/04/09 07:41:17;;;;;;;8.70;5.50;;;;;;;8.57;46.28;100308.50;233962;1174;195230;-65
2021/04/09 07:46:29;;;;;;;8.17;5.47;;;;;;;8.67;46.15;100288.45;234991;1174;116949;-66
2021/04/09 07:51:32;;;;;;;7.35;4.48;;;;;;;8.73;47.89;100278.83;233672;1174;117514;-68
2021/04/09 07:56:43;;;;;;;7.27;3.80;;;;;;;8.88;48.12;100273.24;234924;1174;115322;-69
2021/04/09 08:01:47;;;;;;;12.58;6.00;;;;;;;8.91;47.86;100267.51;235069;1174;114722;-68
2021/04/09 08:06:50;;;;;;;5.93;5.05;;;;;;;8.86;48.35;100264.69;234893;1174;118305;-68
2021/04/09 08:11:55;;;;;;;7.10;5.15;;;;;;;8.66;46.81;100254.11;233789;1174;116258;-69
2021/04/09 08:17:11;;;;;;;7.38;4.63;;;;;;;8.59;48.28;100245.33;233113;1174;115048;-69
2021/04/09 08:22:15;;;;;;;7.28;3.73;;;;;;;8.63;46.40;100251.87;233200;1170;115349;-68
2021/04/09 08:27:18;;;;;;;6.30;5.33;;;;;;;8.68;47.89;100241.43;234078;1174;115777;-68
2021/04/09 08:32:22;;;;;;;9.38;4.83;;;;;;;8.67;43.79;100223.84;232657;1174;115661;-69
2021/04/09 08:37:26;;;;;;;4.83;3.80;;;;;;;8.72;43.31;100232.83;232502;1174;116844;-68
2021/04/09 08:42:31;;;;;;;5.03;3.63;;;;;;;8.80;44.04;100223.81;232468;1174;117187;-67
2021/04/09 08:47:36;;;;;;;4.20;3.10;;;;;;;9.05;45.14;100222.05;232422;1176;117901;-68
2021/04/09 08:52:46;;;;;;;5.68;3.65;;;;;;;9.11;43.35;100215.06;232225;1175;117179;-68
2021/04/09 08:57:49;;;;;;;5.80;3.70;;;;;;;9.31;45.15;100198.97;232387;1176;116081;-68
2021/04/09 09:02:55;;;;;;;4.20;2.70;;;;;;;9.51;42.95;100194.31;232630;1174;116663;-67
2021/04/09 09:08:00;;;;;;;5.70;3.88;;;;;;;9.65;42.87;100189.71;232392;1174;116019;-69
2021/04/09 09:13:03;;;;;;;3.63;1.85;;;;;;;9.66;42.56;100199.33;232433;1176;115604;-69
2021/04/09 09:18:28;;;;;;;7.87;3.70;;;;;;;9.63;39.79;100192.59;232967;1174;115644;-64
2021/04/09 09:23:59;;;;;;;9.05;4.83;;;;;;;9.78;41.60;100189.61;233749;1170;115310;-67
2021/04/09 09:29:23;;;;;;;7.53;3.60;;;;;;;10.03;46.01;100168.27;232940;1174;115393;-65
2021/04/09 09:34:30;;;;;;;7.53;4.70;;;;;;;10.23;43.72;100171.56;234119;1175;116113;-66
2021/04/09 09:39:49;;;;;;;4.25;3.85;;;;;;;10.49;42.13;100159.78;233257;1174;116211;-67
2021/04/09 09:44:53;;;;;;;5.47;4.33;;;;;;;10.59;39.90;100161.92;234412;1174;115676;-68
2021/04/09 09:50:05;;;;;;;4.50;4.10;;;;;;;10.51;39.82;100160.38;235075;1173;116169;-67
2021/04/09 09:55:26;;;;;;;3.60;2.73;;;;;;;10.55;40.66;100153.56;234963;1170;115438;-65
2021/04/09 10:00:41;;;;;;;6.83;4.03;;;;;;;10.51;40.40;100143.56;235010;1174;115358;-66
2021/04/09 10:05:47;;;;;;;6.00;2.87;;;;;;;10.65;40.38;100148.52;234931;1174;116215;-65
2021/04/09 10:10:52;;;;;;;5.10;3.90;;;;;;;10.97;40.27;100140.30;234915;1177;115997;-67
2021/04/09 10:16:17;;;;;;;3.95;3.60;;;;;;;11.12;40.27;100133.48;232468;1174;115769;-66
2021/04/09 10:21:26;;;;;;;6.40;4.30;;;;;;;11.15;39.31;100126.88;233685;1174;115822;-65
2021/04/09 10:26:30;;;;;;;4.77;4.30;;;;;;;11.25;37.54;100112.98;232457;1174;115885;-67
2021/04/09 10:31:33;;;;;;;5.00;3.93;;;;;;;11.38;39.71;100107.41;233559;1174;116184;-66
2021/04/09 10:36:36;;;;;;;4.53;4.08;;;;;;;11.60;38.71;100111.16;232426;1175;115437;-68
2021/04/09 10:41:43;;;;;;;4.65;4.15;;;;;;;11.71;39.01;100096.97;232466;1174;115565;-66
2021/04/09 10:46:55;;;;;;;6.27;3.87;;;;;;;11.66;37.15;100099.52;232525;1174;115072;-66
2021/04/09 10:52:14;;;;;;;5.27;3.70;;;;;;;11.53;37.05;100089.09;233367;1175;116028;-67
2021/04/09 10:57:19;;;;;;;5.20;3.57;;;;;;;11.54;37.62;100088.05;232444;1174;115343;-67
2021/04/09 11:02:24;;;;;;;7.43;4.43;;;;;;;11.60;35.56;100075.64;233232;1174;115394;-68
2021/04/09 11:07:51;;;;;;;10.10;5.00;;;;;;;11.93;37.00;100075.83;232671;1174;116437;-66
2021/04/09 11:13:06;;;;;;;7.25;4.13;;;;;;;12.12;36.86;100073.84;232410;1174;116595;-66
2021/04/09 11:18:09;;;;;;;6.38;3.88;;;;;;;12.11;35.63;100050.83;233537;1174;116560;-65
2021/04/09 11:23:14;;;;;;;6.45;3.90;;;;;;;11.94;35.51;100063.29;232611;1175;115365;-67
2021/04/09 11:28:23;;;;;;;6.25;4.28;;;;;;;11.96;36.15;100053.99;232428;1174;115935;-66
2021/04/09 11:33:36;;;;;;;4.47;3.80;;;;;;;11.75;35.50;100031.37;233204;1167;115000;-66
2021/04/09 11:38:40;;;;;;;6.87;3.87;;;;;;;11.40;36.39;100046.60;232874;1176;117044;-65
2021/04/09 11:43:44;;;;;;;4.18;3.78;;;;;;;11.28;36.65;100035.95;232820;1175;117527;-64
2021/04/09 11:49:02;;;;;;;5.43;4.15;;;;;;;11.36;37.64;100037.44;233566;1174;116288;-65
2021/04/09 11:54:10;;;;;;;4.28;3.80;;;;;;;11.52;38.76;100027.92;234056;1167;115546;-68
2021/04/09 11:59:16;;;;;;;5.30;3.85;;;;;;;11.67;36.88;100025.56;232236;1174;115217;-66
2021/04/09 12:04:35;;;;;;;8.90;4.87;;;;;;;11.71;37.71;100011.52;234999;1170;115436;-66
2021/04/09 12:09:41;;;;;;;4.70;3.17;;;;;;;11.89;37.51;99994.57;235059;1174;115907;-66
2021/04/09 12:14:52;;;;;;;5.80;4.00;;;;;;;11.94;35.19;99991.16;233956;1167;115240;-66
2021/04/09 12:19:58;;;;;;;4.07;3.10;;;;;;;12.03;37.17;99987.07;233885;1174;115450;-65
2021/04/09 12:25:05;;;;;;;4.47;3.70;;;;;;;11.95;37.14;99982.09;232735;1174;115116;-69
2021/04/09 12:30:11;;;;;;;10.40;4.87;;;;;;;11.96;35.97;99973.03;233831;1174;114780;-66
2021/04/09 12:35:14;;;;;;;5.95;4.28;;;;;;;12.06;37.58;99951.86;232779;1170;115146;-69
2021/04/09 12:40:16;;;;;;;4.35;3.48;;;;;;;12.11;38.76;99952.77;233318;1174;115780;-68
2021/04/09 12:45:19;;;;;;;3.83;3.53;;;;;;;12.04;37.63;99951.29;232189;1174;115517;-67
2021/04/09 12:50:22;;;;;;;5.43;2.98;;;;;;;11.81;37.19;99944.19;232270;1174;115984;-69
2021/04/09 12:55:26;;;;;;;3.75;3.35;;;;;;;11.67;36.83;99940.93;232519;1174;116033;-68
2021/04/09 13:00:29;;;;;;;6.75;2.90;;;;;;;11.65;37.37;99927.00;232182;1174;115169;-68
2021/04/09 13:05:32;;;;;;;7.65;5.33;;;;;;;11.82;37.39;99934.31;232667;1174;114828;-68
2021/04/09 13:10:36;;;;;;;5.13;3.90;;;;;;;11.80;37.10;99916.66;232321;1167;116436;-67
2021/04/09 13:15:40;;;;;;;3.38;2.50;;;;;;;11.87;37.62;99897.02;233042;1174;115079;-65
2021/04/09 13:20:43;;;;;;;4.10;3.80;;;;;;;11.99;37.59;99905.77;233192;1174;115380;-65
2021/04/09 13:25:47;;;;;;;7.93;3.80;;;;;;;11.90;36.15;99889.34;232330;1174;115176;-66
2021/04/09 13:30:59;;;;;;;3.85;3.35;;;;;;;11.86;37.59;99893.53;232989;1175;115756;-65
2021/04/09 13:36:13;;;;;;;5.30;4.43;;;;;;;11.77;36.34;99885.09;233546;1174;116359;-65
2021/04/09 13:41:16;;;;;;;7.27;3.07;;;;;;;11.85;38.69;99877.75;232490;1174;119209;-67
2021/04/09 13:46:20;;;;;;;5.80;3.93;;;;;;;11.78;36.03;99868.02;232702;1174;115862;-67
2021/04/09 13:51:23;;;;;;;8.17;3.97;;;;;;;11.63;35.86;99867.69;233359;1174;117096;-68
2021/04/09 13:56:25;;;;;;;5.20;3.83;;;;;;;11.63;37.08;99866.88;233428;1174;115348;-67
2021/04/09 14:01:28;;;;;;;3.45;3.15;;;;;;;11.65;36.73;99857.58;234315;1175;115199;-66
2021/04/09 14:06:32;;;;;;;4.33;3.08;;;;;;;11.65;37.03;99862.92;234958;1174;114754;-65
2021/04/09 14:11:35;;;;;;;5.70;4.40;;;;;;;11.77;35.92;99863.72;234905;1174;115705;-66
2021/04/09 14:16:40;;;;;;;4.73;2.90;;;;;;;12.01;38.66;99856.39;234780;1174;115955;-66
2021/04/09 14:21:44;;;;;;;7.83;4.03;;;;;;;12.07;38.21;99851.95;234178;1176;114702;-66
2021/04/09 14:26:47;;;;;;;10.28;4.25;;;;;;;12.06;38.09;99847.66;232891;1174;115761;-65
2021/04/09 14:31:51;;;;;;;5.70;3.93;;;;;;;12.05;36.80;99854.86;233258;1174;116526;-66
2021/04/09 14:36:56;;;;;;;11.13;5.13;;;;;;;11.76;36.18;99851.42;233575;1173;115508;-67
2021/04/09 14:42:00;;;;;;;4.87;4.23;;;;;;;11.66;35.20;99851.19;232238;1174;116590;-69
2021/04/09 14:47:04;;;;;;;5.77;3.67;;;;;;;11.60;35.52;99846.83;232470;1174;115993;-66
2021/04/09 14:52:11;;;;;;;6.28;4.45;;;;;;;11.37;36.08;99830.88;232356;1174;115799;-67
2021/04/09 14:57:14;;;;;;;4.63;3.95;;;;;;;11.30;37.24;99843.57;232737;1174;116619;-68
2021/04/09 15:02:17;;;;;;;5.10;3.93;;;;;;;11.27;38.07;99836.84;232854;1174;115682;-68
2021/04/09 15:07:22;;;;;;;6.40;4.35;;;;;;;11.24;38.04;99826.64;232813;1174;116028;-67
2021/04/09 15:12:26;;;;;;;7.95;4.78;;;;;;;11.12;37.47;99823.99;232503;1174;115327;-69
2021/04/09 15:17:29;;;;;;;5.10;4.60;;;;;;;11.09;37.46;99819.13;233136;1174;115036;-68
2021/04/09 15:22:32;;;;;;;8.70;4.10;;;;;;;11.10;38.67;99815.41;232655;1174;115934;-66
2021/04/09 15:27:34;;;;;;;5.80;3.43;;;;;;;11.08;37.19;99817.50;232525;1174;118223;-66
2021/04/09 15:32:37;;;;;;;6.23;4.60;;;;;;;11.02;37.13;99812.30;232535;1174;115530;-68
2021/04/09 15:37:44;;;;;;;10.97;4.63;;;;;;;10.99;39.29;99818.13;232339;1174;116361;-68
2021/04/09 15:42:50;;;;;;;4.65;3.78;;;;;;;10.99;38.67;99808.27;232312;1174;115830;-68
2021/04/09 15:47:55;;;;;;;5.40;4.45;;;;;;;10.98;37.56;99814.65;233444;1174;116059;-66
2021/04/09 15:52:57;;;;;;;6.33;5.08;;;;;;;10.90;37.80;99808.86;232812;1174;203290;-66
2021/04/09 15:58:04;;;;;;;6.08;4.60;;;;;;;10.79;37.54;99819.30;232385;1174;116076;-66
2021/04/09 16:03:08;;;;;;;17.40;5.85;;;;;;;10.65;39.00;99812.61;232474;1174;116156;-67
2021/04/09 16:08:12;;;;;;;6.33;4.43;;;;;;;10.51;38.69;99810.40;234636;1174;116649;-68
2021/04/09 16:13:17;;;;;;;6.45;4.58;;;;;;;10.38;39.59;99816.79;234104;1174;116388;-68
2021/04/09 16:18:20;;;;;;;6.33;4.25;;;;;;;10.25;39.04;99811.67;233435;1174;115978;-68
2021/04/09 16:23:23;;;;;;;7.45;5.05;;;;;;;10.17;39.32;99803.98;232463;1174;116154;-69
2021/04/09 16:28:28;;;;;;;6.35;4.60;;;;;;;10.07;38.99;99809.89;232778;1174;116132;-68
2021/04/09 16:33:31;;;;;;;8.45;3.90;;;;;;;9.98;40.44;99803.27;232807;1176;116785;-68
2021/04/09 16:38:34;;;;;;;11.45;4.58;;;;;;;9.86;39.91;99807.75;232520;1174;116153;-67
2021/04/09 16:43:37;;;;;;;4.50;3.50;;;;;;;9.67;40.79;99797.18;232510;1174;116263;-67
2021/04/09 16:48:40;;;;;;;7.83;5.10;;;;;;;9.56;41.58;99799.80;232351;1174;116658;-68
2021/04/09 16:53:47;;;;;;;4.73;3.70;;;;;;;9.42;42.58;99797.33;233476;1174;115764;-67
2021/04/09 16:58:50;;;;;;;7.95;4.50;;;;;;;9.34;42.01;99796.83;232532;1174;116284;-67
2021/04/09 17:03:55;;;;;;;5.50;4.67;;;;;;;9.21;43.72;99791.66;232997;1174;115360;-67
2021/04/09 17:08:57;;;;;;;8.05;5.15;;;;;;;9.09;41.33;99792.44;232853;1174;117019;-67
2021/04/09 17:14:00;;;;;;;6.53;4.90;;;;;;;8.97;43.61;99793.40;232523;1174;116107;-68
2021/04/09 17:19:03;;;;;;;9.53;6.05;;;;;;;8.84;43.23;99805.02;232315;1176;116163;-68
2021/04/09 17:24:08;;;;;;;7.30;4.70;;;;;;;8.67;44.04;99806.61;232984;1174;116250;-68
2021/04/09 17:29:15;;;;;;;9.60;6.17;;;;;;;8.53;45.39;99794.52;233145;1174;115654;-67
2021/04/09 17:34:18;;;;;;;10.43;5.60;;;;;;;8.40;45.63;99803.41;233170;1175;114951;-69
2021/04/09 17:39:22;;;;;;;9.48;5.28;;;;;;;8.20;46.18;99798.26;232465;1174;116464;-66
2021/04/09 17:44:28;;;;;;;7.90;5.70;;;;;;;8.08;45.49;99802.63;232863;1174;114940;-67
2021/04/09 17:49:32;;;;;;;10.45;6.08;;;;;;;7.94;47.36;99795.82;233707;1174;115906;-66
2021/04/09 17:54:34;;;;;;;13.15;6.90;;;;;;;7.84;47.29;99798.95;232790;1174;116259;-66
2021/04/09 17:59:38;;;;;;;12.08;6.13;;;;;;;7.70;46.54;99806.17;233168;1174;116641;-67
2021/04/09 18:04:42;;;;;;;8.60;6.55;;;;;;;7.59;46.89;99804.22;233552;1174;115986;-64
2021/04/09 18:09:45;;;;;;;8.50;5.55;;;;;;;7.51;46.90;99801.00;232802;1173;116702;-67
2021/04/09 18:14:48;;;;;;;9.57;6.90;;;;;;;7.41;48.29;99802.27;234444;1170;115509;-66
2021/04/09 18:19:56;;;;;;;14.03;7.35;;;;;;;7.36;47.96;99802.08;235019;1174;115112;-65
2021/04/09 18:24:58;;;;;;;11.98;7.53;;;;;;;7.34;47.70;99795.36;234475;1174;116790;-69
2021/04/09 18:30:02;;;;;;;16.10;9.05;;;;;;;7.30;47.39;99804.80;233357;1174;115674;-71
2021/04/09 18:35:09;;;;;;;17.33;8.27;;;;;;;7.23;48.55;99796.05;234101;1174;115586;-68
2021/04/09 18:40:14;;;;;;;12.58;7.95;;;;;;;7.10;48.36;99797.72;233344;1174;115090;-69
2021/04/09 18:45:18;;;;;;;15.60;8.63;;;;;;;7.01;48.98;99796.36;233970;1174;115526;-67
2021/04/09 18:50:23;;;;;;;15.90;10.97;;;;;;;6.93;48.05;99801.07;233209;1174;115898;-67
2021/04/09 18:55:29;;;;;;;17.60;12.40;;;;;;;6.82;48.76;99799.87;232505;1174;115717;-68
2021/04/09 19:00:32;;;;;;;22.73;11.00;;;;;;;6.72;49.16;99797.67;232596;1174;117053;-66
2021/04/09 19:05:36;;;;;;;19.80;10.97;;;;;;;6.62;49.57;99793.82;232713;1174;115810;-67
2021/04/09 19:10:40;;;;;;;20.77;12.13;;;;;;;6.56;49.74;99806.05;232438;1176;117188;-67
2021/04/09 19:15:44;;;;;;;18.67;10.27;;;;;;;6.47;50.64;99801.17;232505;1174;117618;-69
2021/04/09 19:20:47;;;;;;;18.95;11.50;;;;;;;6.38;50.40;99801.41;232518;1174;116122;-67
2021/04/09 19:25:50;;;;;;;18.65;10.08;;;;;;;6.27;49.91;99794.08;233155;1174;115585;-67
2021/04/09 19:30:57;;;;;;;25.00;13.10;;;;;;;6.20;51.03;99790.62;232398;1174;116122;-65
2021/04/09 19:36:02;;;;;;;17.98;8.90;;;;;;;6.09;51.13;99788.61;232374;1174;115359;-68
2021/04/09 19:41:05;;;;;;;23.73;13.47;;;;;;;5.99;50.99;99785.55;232403;1174;116064;-68
2021/04/09 19:46:09;;;;;;;14.23;8.53;;;;;;;5.87;50.39;99785.30;232318;1174;115313;-67
2021/04/09 19:51:12;;;;;;;17.00;11.40;;;;;;;5.81;51.36;99782.67;232850;1174;116654;-65
2021/04/09 19:56:15;;;;;;;16.80;10.27;;;;;;;5.68;52.07;99780.81;232425;1174;115528;-68
2021/04/09 20:01:18;;;;;;;20.13;12.57;;;;;;;5.61;51.28;99790.56;232463;1170;115841;-66
2021/04/09 20:06:23;;;;;;;19.10;10.55;;;;;;;5.56;51.89;99779.77;234119;1174;115174;-68
2021/04/09 20:11:26;;;;;;;20.73;11.50;;;;;;;5.49;51.92;99776.33;234980;1174;115885;-68
2021/04/09 20:16:30;;;;;;;16.80;10.10;;;;;;;5.47;52.31;99765.13;234983;1174;115528;-68
2021/04/09 20:21:33;;;;;;;16.20;9.70;;;;;;;5.45;51.97;99762.69;235048;1174;114681;-65
2021/04/09 20:26:37;;;;;;;15.87;11.47;;;;;;;5.42;51.34;99755.16;235037;1174;114801;-67
2021/04/09 20:31:41;;;;;;;25.30;12.57;;;;;;;5.40;52.07;99758.00;233727;1174;115708;-66
2021/04/09 20:36:45;;;;;;;16.10;10.93;;;;;;;5.37;52.67;99752.30;232990;1174;116458;-68
2021/04/09 20:41:51;;;;;;;16.73;11.43;;;;;;;5.29;52.49;99753.28;233472;1168;115630;-67
2021/04/09 20:46:54;;;;;;;23.03;12.63;;;;;;;5.21;53.23;99753.46;233313;1174;117178;-67
2021/04/09 20:51:57;;;;;;;20.65;11.48;;;;;;;5.13;53.53;99766.06;232153;1174;117548;-66
2021/04/09 20:57:00;;;;;;;11.23;7.95;;;;;;;5.04;55.11;99762.77;232505;1174;115791;-68
2021/04/09 21:02:03;;;;;;;23.85;13.93;;;;;;;4.95;54.42;99766.59;232364;1174;115572;-68
2021/04/09 21:07:06;;;;;;;38.50;14.90;;;;;;;4.83;55.20;99758.44;232489;1174;115541;-66
2021/04/09 21:12:11;;;;;;;22.30;10.30;;;;;;;4.75;55.53;99755.95;232615;1174;116759;-64
2021/04/09 21:17:14;;;;;;;23.13;11.88;;;;;;;4.70;55.99;99747.80;232335;1174;115457;-66
2021/04/09 21:22:17;;;;;;;31.47;14.60;;;;;;;4.66;55.94;99744.73;233056;1174;115615;-64
2021/04/09 21:27:21;;;;;;;30.60;11.87;;;;;;;4.62;55.37;99734.76;232410;1174;115929;-67
2021/04/09 21:32:24;;;;;;;28.30;14.23;;;;;;;4.58;56.22;99741.47;233243;1174;115549;-68
2021/04/09 21:37:27;;;;;;;33.53;15.53;;;;;;;4.53;57.35;99742.05;233056;1174;115071;-67
2021/04/09 21:42:30;;;;;;;22.33;11.40;;;;;;;4.49;56.35;99745.27;232549;1174;115398;-66
2021/04/09 21:47:34;;;;;;;24.35;11.83;;;;;;;4.42;55.69;99742.59;233021;1174;116199;-65
2021/04/09 21:52:37;;;;;;;35.40;12.50;;;;;;;4.39;55.93;99743.79;233083;1170;115047;-68
2021/04/09 21:57:41;;;;;;;22.00;12.43;;;;;;;4.33;56.38;99734.00;232806;1174;115080;-66
2021/04/09 22:02:45;;;;;;;39.38;12.08;;;;;;;4.30;55.99;99734.39;234613;1174;118742;-66
2021/04/09 22:07:49;;;;;;;26.93;10.98;;;;;;;4.30;57.63;99726.47;234246;1174;119230;-65
2021/04/09 22:12:55;;;;;;;18.17;12.10;;;;;;;4.30;57.03;99726.47;234397;1174;115193;-66
2021/04/09 22:18:03;;;;;;;23.70;12.10;;;;;;;4.29;56.55;99719.56;235023;1174;115274;-66
2021/04/09 22:23:09;;;;;;;22.30;13.05;;;;;;;4.28;57.28;99723.20;233552;1174;117660;-68
2021/04/09 22:28:18;;;;;;;19.80;11.08;;;;;;;4.27;56.96;99713.70;233981;1174;114692;-68
2021/04/09 22:33:22;;;;;;;23.20;11.10;;;;;;;4.25;56.46;99714.89;233962;1174;115338;-68
2021/04/09 22:38:27;;;;;;;22.70;11.70;;;;;;;4.22;57.02;99704.73;233971;1174;115070;-67
2021/04/09 22:43:30;;;;;;;24.55;12.20;;;;;;;4.22;56.69;99710.00;232645;1174;114716;-68
2021/04/09 22:48:37;;;;;;;27.33;10.58;;;;;;;4.17;56.90;99702.66;233727;1174;114960;-65
2021/04/09 22:53:41;;;;;;;19.27;11.70;;;;;;;4.15;56.89;99707.31;232880;1174;115224;-67
2021/04/09 22:58:45;;;;;;;22.20;11.63;;;;;;;4.12;57.12;99704.25;232523;1174;115314;-65
2021/04/09 23:03:49;;;;;;;20.68;11.68;;;;;;;4.11;57.01;99699.98;233143;1174;116289;-67
2021/04/09 23:08:52;;;;;;;22.70;11.80;;;;;;;4.09;57.52;99696.72;232575;1174;115957;-67
2021/04/09 23:13:56;;;;;;;19.80;11.05;;;;;;;4.04;57.02;99689.38;232665;1174;115161;-65